sensor_id;sensor_type;location;lat;lon;timestamp;pressure;altitude;pressure_sealevel;temperature;humidity
6136;BME280;24008;42.664;23.372;2023-02-18T00:01:09;95509.69;;;3.29;61.01
6136;BME280;24008;42.664;23.372;2023-02-18T00:03:36;95513.09;;;3.28;60.70
6136;BME280;24008;42.664;23.372;2023-02-18T00:06:10;95503.81;;;3.29;60.70
6136;BME280;24008;42.664;23.372;2023-02-18T00:08:37;95512.28;;;3.28;61.56
6136;BME280;24008;42.664;23.372;2023-02-18T00:11:05;95464.16;;;2.98;61.44
6136;BME280;24008;42.664;23.372;2023-02-18T00:13:32;95380.25;;;2.42;61.39
6136;BME280;24008;42.664;23.372;2023-02-18T00:16:00;95497.94;;;3.12;61.71
6136;BME280;24008;42.664;23.372;2023-02-18T00:18:27;95486.25;;;3.10;61.25
6136;BME280;24008;42.664;23.372;2023-02-18T00:20:54;95482.78;;;3.12;62.15
6136;BME280;24008;42.664;23.372;2023-02-18T00:23:21;95410.00;;;2.70;62.21
6136;BME280;24008;42.664;23.372;2023-02-18T00:25:47;95475.28;;;3.11;62.26
6136;BME280;24008;42.664;23.372;2023-02-18T00:28:15;95469.56;;;3.07;62.11
6136;BME280;24008;42.664;23.372;2023-02-18T00:30:42;95334.28;;;2.20;61.79
6136;BME280;24008;42.664;23.372;2023-02-18T00:33:09;95355.00;;;2.27;62.35
6136;BME280;24008;42.664;23.372;2023-02-18T00:35:36;95378.94;;;2.35;62.38
6136;BME280;24008;42.664;23.372;2023-02-18T00:38:03;95042.69;;;0.20;63.05
6136;BME280;24008;42.664;23.372;2023-02-18T00:40:29;95296.00;;;1.79;63.26
6136;BME280;24008;42.664;23.372;2023-02-18T00:42:56;95456.91;;;2.74;63.27
6136;BME280;24008;42.664;23.372;2023-02-18T00:45:24;95399.06;;;2.37;63.50
6136;BME280;24008;42.664;23.372;2023-02-18T00:47:51;95448.00;;;2.67;63.49
6136;BME280;24008;42.664;23.372;2023-02-18T00:50:18;95448.00;;;2.67;64.00
6136;BME280;24008;42.664;23.372;2023-02-18T00:52:45;95441.31;;;2.66;64.55
6136;BME280;24008;42.664;23.372;2023-02-18T00:55:11;95452.16;;;2.68;64.22
6136;BME280;24008;42.664;23.372;2023-02-18T00:57:38;95296.94;;;1.59;64.38
6136;BME280;24008;42.664;23.372;2023-02-18T01:00:06;95440.75;;;2.61;64.94
6136;BME280;24008;42.664;23.372;2023-02-18T01:02:35;95283.38;;;1.44;64.59
6136;BME280;24008;42.664;23.372;2023-02-18T01:05:01;95351.44;;;1.79;65.45
6136;BME280;24008;42.664;23.372;2023-02-18T01:07:28;95251.47;;;1.09;65.50
6136;BME280;24008;42.664;23.372;2023-02-18T01:09:55;95416.06;;;2.16;65.63
6136;BME280;24008;42.664;23.372;2023-02-18T01:12:22;95418.13;;;2.25;65.53
6136;BME280;24008;42.664;23.372;2023-02-18T01:14:48;95455.28;;;2.39;65.66
6136;BME280;24008;42.664;23.372;2023-02-18T01:17:15;95456.47;;;2.32;65.96
6136;BME280;24008;42.664;23.372;2023-02-18T01:19:43;95454.47;;;2.21;65.59
6136;BME280;24008;42.664;23.372;2023-02-18T01:22:10;95350.34;;;1.49;65.91
6136;BME280;24008;42.664;23.372;2023-02-18T01:24:37;95451.56;;;2.11;66.29
6136;BME280;24008;42.664;23.372;2023-02-18T01:27:03;95448.28;;;2.09;66.52
6136;BME280;24008;42.664;23.372;2023-02-18T01:29:30;95445.03;;;2.07;66.81
6136;BME280;24008;42.664;23.372;2023-02-18T01:31:57;95445.78;;;2.09;66.69
6136;BME280;24008;42.664;23.372;2023-02-18T01:34:23;95448.16;;;2.12;66.82
6136;BME280;24008;42.664;23.372;2023-02-18T01:36:52;95406.97;;;1.95;66.90
6136;BME280;24008;42.664;23.372;2023-02-18T01:39:18;95406.69;;;2.01;67.04
6136;BME280;24008;42.664;23.372;2023-02-18T01:41:45;95437.34;;;2.28;66.72
6136;BME280;24008;42.664;23.372;2023-02-18T01:44:17;95423.63;;;2.16;66.20
6136;BME280;24008;42.664;23.372;2023-02-18T01:46:45;95445.41;;;2.34;66.32
6136;BME280;24008;42.664;23.372;2023-02-18T01:49:15;95416.63;;;2.21;66.00
6136;BME280;24008;42.664;23.372;2023-02-18T01:51:46;95425.75;;;2.24;66.14
6136;BME280;24008;42.664;23.372;2023-02-18T01:54:21;95484.69;;;2.40;65.89
6136;BME280;24008;42.664;23.372;2023-02-18T01:56:53;95457.75;;;2.40;66.02
6136;BME280;24008;42.664;23.372;2023-02-18T01:59:25;95465.22;;;2.42;66.11
6136;BME280;24008;42.664;23.372;2023-02-18T02:01:53;95455.94;;;2.42;65.88
6136;BME280;24008;42.664;23.372;2023-02-18T02:04:20;95400.06;;;1.98;65.86
6136;BME280;24008;42.664;23.372;2023-02-18T02:06:47;95457.66;;;2.42;66.20
6136;BME280;24008;42.664;23.372;2023-02-18T02:09:16;95445.84;;;2.42;65.69
6136;BME280;24008;42.664;23.372;2023-02-18T02:15:03;95450.53;;;2.33;65.65
6136;BME280;24008;42.664;23.372;2023-02-18T02:17:37;95401.56;;;2.02;65.82
6136;BME280;24008;42.664;23.372;2023-02-18T02:20:41;95416.69;;;2.02;66.21
6136;BME280;24008;42.664;23.372;2023-02-18T02:26:31;95432.09;;;1.96;66.42
6136;BME280;24008;42.664;23.372;2023-02-18T02:29:30;95420.56;;;1.92;66.30
6136;BME280;24008;42.664;23.372;2023-02-18T02:32:16;95451.56;;;2.11;66.29
6136;BME280;24008;42.664;23.372;2023-02-18T02:34:54;95445.78;;;2.09;66.64
6136;BME280;24008;42.664;23.372;2023-02-18T02:37:29;95331.31;;;1.43;66.37
6136;BME280;24008;42.664;23.372;2023-02-18T02:40:06;95347.63;;;1.53;66.57
6136;BME280;24008;42.664;23.372;2023-02-18T02:42:43;95420.09;;;2.01;66.78
6136;BME280;24008;42.664;23.372;2023-02-18T02:45:17;95431.38;;;2.11;67.17
6136;BME280;24008;42.664;23.372;2023-02-18T02:47:51;95389.72;;;2.04;66.74
6136;BME280;24008;42.664;23.372;2023-02-18T02:50:27;95346.84;;;2.04;66.51
6136;BME280;24008;42.664;23.372;2023-02-18T02:52:58;95333.47;;;2.20;64.61
6136;BME280;24008;42.664;23.372;2023-02-18T02:55:25;95366.19;;;2.38;64.27
6136;BME280;24008;42.664;23.372;2023-02-18T02:57:53;95421.19;;;2.82;63.98
6136;BME280;24008;42.664;23.372;2023-02-18T03:00:26;95430.31;;;2.84;64.00
6136;BME280;24008;42.664;23.372;2023-02-18T03:03:14;95442.78;;;2.87;63.78
6136;BME280;24008;42.664;23.372;2023-02-18T03:05:59;95446.13;;;2.88;63.86
6136;BME280;24008;42.664;23.372;2023-02-18T03:08:38;95440.84;;;2.93;63.87
6136;BME280;24008;42.664;23.372;2023-02-18T03:11:09;95438.50;;;2.89;63.90
6136;BME280;24008;42.664;23.372;2023-02-18T03:13:48;95362.84;;;2.38;63.88
6136;BME280;24008;42.664;23.372;2023-02-18T03:16:24;95409.50;;;2.46;64.03
6136;BME280;24008;42.664;23.372;2023-02-18T03:18:57;95424.09;;;2.57;64.39
6136;BME280;24008;42.664;23.372;2023-02-18T03:21:28;95439.56;;;2.51;64.54
6136;BME280;24008;42.664;23.372;2023-02-18T03:24:00;95452.25;;;2.49;64.39
6136;BME280;24008;42.664;23.372;2023-02-18T03:26:30;95456.34;;;2.52;64.54
6136;BME280;24008;42.664;23.372;2023-02-18T03:29:02;95460.63;;;2.50;65.16
6136;BME280;24008;42.664;23.372;2023-02-18T03:31:31;95468.22;;;2.50;64.94
6136;BME280;24008;42.664;23.372;2023-02-18T03:34:02;95303.94;;;1.35;64.54
6136;BME280;24008;42.664;23.372;2023-02-18T03:36:33;95480.34;;;2.42;65.11
6136;BME280;24008;42.664;23.372;2023-02-18T03:39:04;95476.50;;;2.35;64.74
6136;BME280;24008;42.664;23.372;2023-02-18T03:41:33;95464.03;;;2.14;65.36
6136;BME280;24008;42.664;23.372;2023-02-18T03:44:03;95490.94;;;2.14;65.42
6136;BME280;24008;42.664;23.372;2023-02-18T03:46:31;95490.41;;;2.07;65.78
6136;BME280;24008;42.664;23.372;2023-02-18T03:48:58;95493.16;;;2.03;66.33
6136;BME280;24008;42.664;23.372;2023-02-18T03:51:25;95490.16;;;1.95;66.59
6136;BME280;24008;42.664;23.372;2023-02-18T03:53:53;95473.50;;;1.73;66.98
6136;BME280;24008;42.664;23.372;2023-02-18T03:56:20;95500.53;;;1.89;67.16
6136;BME280;24008;42.664;23.372;2023-02-18T03:58:47;95503.19;;;1.86;67.13
6136;BME280;24008;42.664;23.372;2023-02-18T04:01:14;95453.31;;;1.56;67.63
6136;BME280;24008;42.664;23.372;2023-02-18T04:03:41;95489.44;;;1.74;67.73
6136;BME280;24008;42.664;23.372;2023-02-18T04:06:08;95488.69;;;1.72;67.91
6136;BME280;24008;42.664;23.372;2023-02-18T04:08:35;95482.16;;;1.68;68.65
6136;BME280;24008;42.664;23.372;2023-02-18T04:11:04;95456.84;;;1.52;68.91
6136;BME280;24008;42.664;23.372;2023-02-18T04:13:31;95480.53;;;1.67;68.73
6136;BME280;24008;42.664;23.372;2023-02-18T04:15:57;95408.91;;;1.16;68.90
6136;BME280;24008;42.664;23.372;2023-02-18T04:18:24;95475.00;;;1.59;68.60
6136;BME280;24008;42.664;23.372;2023-02-18T04:20:51;95411.38;;;1.18;68.66
6136;BME280;24008;42.664;23.372;2023-02-18T04:23:17;95446.69;;;1.35;68.93
6136;BME280;24008;42.664;23.372;2023-02-18T04:25:44;95462.94;;;1.65;69.05
6136;BME280;24008;42.664;23.372;2023-02-18T04:28:14;95470.66;;;1.81;68.94
6136;BME280;24008;42.664;23.372;2023-02-18T04:30:41;95462.59;;;1.92;68.84
6136;BME280;24008;42.664;23.372;2023-02-18T04:33:08;95425.13;;;1.84;68.19
6136;BME280;24008;42.664;23.372;2023-02-18T04:35:35;95453.34;;;2.09;68.01
6136;BME280;24008;42.664;23.372;2023-02-18T04:38:02;95452.38;;;2.12;67.76
6136;BME280;24008;42.664;23.372;2023-02-18T04:40:29;95383.66;;;1.72;67.56
6136;BME280;24008;42.664;23.372;2023-02-18T04:42:55;95451.44;;;2.14;67.69
6136;BME280;24008;42.664;23.372;2023-02-18T04:45:24;95449.94;;;2.28;66.72
6136;BME280;24008;42.664;23.372;2023-02-18T04:47:51;95453.19;;;2.30;66.69
6136;BME280;24008;42.664;23.372;2023-02-18T04:50:19;95455.81;;;2.28;65.88
6136;BME280;24008;42.664;23.372;2023-02-18T04:52:46;95461.75;;;2.44;66.16
6136;BME280;24008;42.664;23.372;2023-02-18T04:55:12;95463.44;;;2.44;65.85
6136;BME280;24008;42.664;23.372;2023-02-18T04:57:39;95437.03;;;2.34;65.67
6136;BME280;24008;42.664;23.372;2023-02-18T05:00:08;95463.16;;;2.50;65.57
6136;BME280;24008;42.664;23.372;2023-02-18T05:02:37;95418.75;;;1.94;65.86
6136;BME280;24008;42.664;23.372;2023-02-18T05:05:04;95445.50;;;2.15;66.51
6136;BME280;24008;42.664;23.372;2023-02-18T05:07:30;95481.75;;;2.30;66.80
6136;BME280;24008;42.664;23.372;2023-02-18T05:09:57;95451.75;;;1.90;66.70
6136;BME280;24008;42.664;23.372;2023-02-18T05:12:24;95216.13;;;0.39;67.21
6136;BME280;24008;42.664;23.372;2023-02-18T05:14:51;95469.03;;;1.97;67.37
6136;BME280;24008;42.664;23.372;2023-02-18T05:17:17;95397.53;;;1.45;68.10
6136;BME280;24008;42.664;23.372;2023-02-18T05:19:46;95441.84;;;1.68;68.25
6136;BME280;24008;42.664;23.372;2023-02-18T05:22:12;95475.94;;;1.75;68.35
6136;BME280;24008;42.664;23.372;2023-02-18T05:24:39;95437.50;;;1.53;69.12
6136;BME280;24008;42.664;23.372;2023-02-18T05:27:06;95468.38;;;1.75;69.22
6136;BME280;24008;42.664;23.372;2023-02-18T05:29:33;95400.06;;;1.26;69.19
6136;BME280;24008;42.664;23.372;2023-02-18T05:31:59;95472.47;;;1.59;70.01
6136;BME280;24008;42.664;23.372;2023-02-18T05:34:26;95473.44;;;1.56;70.02
6136;BME280;24008;42.664;23.372;2023-02-18T05:36:54;95467.44;;;1.59;70.45
6136;BME280;24008;42.664;23.372;2023-02-18T05:39:21;95465.41;;;1.67;70.00
6136;BME280;24008;42.664;23.372;2023-02-18T05:41:48;95476.00;;;1.73;69.94
6136;BME280;24008;42.664;23.372;2023-02-18T05:44:15;95467.97;;;1.84;70.09
6136;BME280;24008;42.664;23.372;2023-02-18T05:46:59;95467.06;;;2.04;69.34
6136;BME280;24008;42.664;23.372;2023-02-18T05:49:26;95436.63;;;2.07;68.72
6136;BME280;24008;42.664;23.372;2023-02-18T05:51:55;95176.63;;;0.59;67.67
6136;BME280;24008;42.664;23.372;2023-02-18T05:54:22;95474.72;;;2.54;67.62
6136;BME280;24008;42.664;23.372;2023-02-18T05:56:49;95491.97;;;2.63;66.73
6136;BME280;24008;42.664;23.372;2023-02-18T05:59:17;95496.56;;;2.72;66.83
6136;BME280;24008;42.664;23.372;2023-02-18T06:01:44;95462.56;;;2.62;66.59
6136;BME280;24008;42.664;23.372;2023-02-18T06:04:11;95490.97;;;3.00;65.61
6136;BME280;24008;42.664;23.372;2023-02-18T06:06:38;95495.16;;;3.17;64.99
6136;BME280;24008;42.664;23.372;2023-02-18T06:09:07;95338.19;;;2.43;65.05
6136;BME280;24008;42.664;23.372;2023-02-18T06:11:34;95485.94;;;3.49;65.17
6136;BME280;24008;42.664;23.372;2023-02-18T06:14:01;95476.72;;;3.63;64.10
6136;BME280;24008;42.664;23.372;2023-02-18T06:16:28;95481.06;;;3.77;63.40
6136;BME280;24008;42.664;23.372;2023-02-18T06:18:55;95477.13;;;3.87;63.63
6136;BME280;24008;42.664;23.372;2023-02-18T06:21:22;95301.22;;;2.90;62.90
6136;BME280;24008;42.664;23.372;2023-02-18T06:23:49;95468.13;;;4.13;61.29
6136;BME280;24008;42.664;23.372;2023-02-18T06:26:18;95476.13;;;4.21;60.79
6136;BME280;24008;42.664;23.372;2023-02-18T06:28:44;95478.91;;;4.32;61.05
6136;BME280;24008;42.664;23.372;2023-02-18T06:31:11;95468.94;;;4.29;61.12
6136;BME280;24008;42.664;23.372;2023-02-18T06:33:38;95467.44;;;4.41;60.74
6136;BME280;24008;42.664;23.372;2023-02-18T06:36:07;95416.47;;;4.17;61.25
6136;BME280;24008;42.664;23.372;2023-02-18T06:38:36;95451.41;;;4.56;60.58
6136;BME280;24008;42.664;23.372;2023-02-18T06:41:04;95423.69;;;4.39;59.48
6136;BME280;24008;42.664;23.372;2023-02-18T06:43:32;95375.78;;;4.06;60.07
6136;BME280;24008;42.664;23.372;2023-02-18T06:45:59;95470.59;;;4.75;60.23
6136;BME280;24008;42.664;23.372;2023-02-18T06:48:26;95463.38;;;4.83;59.68
6136;BME280;24008;42.664;23.372;2023-02-18T06:50:53;95457.16;;;5.02;58.29
6136;BME280;24008;42.664;23.372;2023-02-18T06:53:20;95467.31;;;5.17;58.82
6136;BME280;24008;42.664;23.372;2023-02-18T06:55:47;95460.22;;;5.22;58.09
6136;BME280;24008;42.664;23.372;2023-02-18T06:58:14;95464.88;;;5.29;57.94
6136;BME280;24008;42.664;23.372;2023-02-18T07:00:43;95474.38;;;5.40;58.17
6136;BME280;24008;42.664;23.372;2023-02-18T07:03:10;95471.09;;;5.38;57.35
6136;BME280;24008;42.664;23.372;2023-02-18T07:05:38;95465.69;;;5.30;57.86
6136;BME280;24008;42.664;23.372;2023-02-18T07:08:05;95461.31;;;5.46;57.97
6136;BME280;24008;42.664;23.372;2023-02-18T07:10:32;95465.72;;;5.57;57.72
6136;BME280;24008;42.664;23.372;2023-02-18T07:12:58;95349.84;;;5.44;56.55
6136;BME280;24008;42.664;23.372;2023-02-18T07:15:25;95431.47;;;6.32;54.85
6136;BME280;24008;42.664;23.372;2023-02-18T07:17:53;95466.38;;;6.68;53.12
6136;BME280;24008;42.664;23.372;2023-02-18T07:20:21;95449.53;;;6.92;52.98
6136;BME280;24008;42.664;23.372;2023-02-18T07:22:51;95448.94;;;7.01;52.37
6136;BME280;24008;42.664;23.372;2023-02-18T07:25:28;95271.31;;;5.97;51.77
6136;BME280;24008;42.664;23.372;2023-02-18T07:28:03;95455.16;;;6.97;51.63
6136;BME280;24008;42.664;23.372;2023-02-18T07:30:35;95158.34;;;5.14;52.72
6136;BME280;24008;42.664;23.372;2023-02-18T07:33:10;95457.47;;;7.26;51.85
6136;BME280;24008;42.664;23.372;2023-02-18T07:35:38;95453.75;;;7.68;50.40
6136;BME280;24008;42.664;23.372;2023-02-18T07:38:05;95461.75;;;7.74;49.00
6136;BME280;24008;42.664;23.372;2023-02-18T07:40:32;95467.63;;;7.51;48.97
6136;BME280;24008;42.664;23.372;2023-02-18T07:42:59;95400.78;;;6.87;49.69
6136;BME280;24008;42.664;23.372;2023-02-18T07:45:25;95440.00;;;6.96;49.92
6136;BME280;24008;42.664;23.372;2023-02-18T07:47:52;95464.41;;;7.23;50.33
6136;BME280;24008;42.664;23.372;2023-02-18T07:50:21;95467.63;;;7.51;50.84
6136;BME280;24008;42.664;23.372;2023-02-18T07:52:48;95470.66;;;7.69;49.81
6136;BME280;24008;42.664;23.372;2023-02-18T07:55:14;95462.06;;;7.82;49.97
6136;BME280;24008;42.664;23.372;2023-02-18T07:57:41;95472.59;;;8.02;48.86
6136;BME280;24008;42.664;23.372;2023-02-18T08:00:36;95473.16;;;8.18;48.70
6136;BME280;24008;42.664;23.372;2023-02-18T08:03:03;95470.56;;;8.54;48.80
6136;BME280;24008;42.664;23.372;2023-02-18T08:05:30;95473.81;;;8.56;48.10
6136;BME280;24008;42.664;23.372;2023-02-18T08:07:56;95421.22;;;8.55;47.31
6136;BME280;24008;42.664;23.372;2023-02-18T08:10:23;95466.78;;;9.28;45.67
6136;BME280;24008;42.664;23.372;2023-02-18T08:12:50;95463.88;;;10.43;43.90
6136;BME280;24008;42.664;23.372;2023-02-18T08:15:17;95461.69;;;11.42;42.14
6136;BME280;24008;42.664;23.372;2023-02-18T08:17:45;95447.09;;;12.81;40.24
6136;BME280;24008;42.664;23.372;2023-02-18T08:20:12;95409.34;;;12.54;37.48
6136;BME280;24008;42.664;23.372;2023-02-18T08:22:39;95416.78;;;12.18;38.71
6136;BME280;24008;42.664;23.372;2023-02-18T08:25:06;95456.84;;;12.39;38.60
6136;BME280;24008;42.664;23.372;2023-02-18T08:27:32;95406.28;;;13.26;37.37
6136;BME280;24008;42.664;23.372;2023-02-18T08:29:59;95454.09;;;13.91;36.06
6136;BME280;24008;42.664;23.372;2023-02-18T08:32:26;95430.72;;;13.11;35.81
6136;BME280;24008;42.664;23.372;2023-02-18T08:34:55;95429.72;;;12.46;37.29
6136;BME280;24008;42.664;23.372;2023-02-18T08:37:21;95438.34;;;12.06;38.22
6136;BME280;24008;42.664;23.372;2023-02-18T08:39:48;95403.19;;;11.38;38.47
6136;BME280;24008;42.664;23.372;2023-02-18T08:42:15;95418.59;;;11.17;38.99
6136;BME280;24008;42.664;23.372;2023-02-18T08:44:42;95434.59;;;11.09;39.55
6136;BME280;24008;42.664;23.372;2023-02-18T08:47:09;95448.19;;;10.89;39.77
6136;BME280;24008;42.664;23.372;2023-02-18T08:49:35;95447.88;;;10.82;39.73
6136;BME280;24008;42.664;23.372;2023-02-18T08:52:04;95447.66;;;10.86;40.43
6136;BME280;24008;42.664;23.372;2023-02-18T08:54:31;95451.50;;;10.80;40.52
6136;BME280;24008;42.664;23.372;2023-02-18T08:56:57;95455.44;;;10.84;40.45
6136;BME280;24008;42.664;23.372;2023-02-18T08:59:24;95415.41;;;10.73;39.63
6136;BME280;24008;42.664;23.372;2023-02-18T09:01:51;95409.34;;;10.74;39.84
6136;BME280;24008;42.664;23.372;2023-02-18T09:04:18;95419.19;;;10.58;40.10
6136;BME280;24008;42.664;23.372;2023-02-18T09:06:46;95392.69;;;10.59;40.42
6136;BME280;24008;42.664;23.372;2023-02-18T09:09:16;95413.31;;;11.09;39.47
6136;BME280;24008;42.664;23.372;2023-02-18T09:11:43;95443.66;;;11.44;39.19
6136;BME280;24008;42.664;23.372;2023-02-18T09:14:10;95441.13;;;11.53;39.43
6136;BME280;24008;42.664;23.372;2023-02-18T09:16:38;95433.84;;;11.89;39.33
6136;BME280;24008;42.664;23.372;2023-02-18T09:19:04;95441.78;;;11.86;38.53
6136;BME280;24008;42.664;23.372;2023-02-18T09:21:32;95446.84;;;12.07;39.00
6136;BME280;24008;42.664;23.372;2023-02-18T09:23:59;95444.72;;;12.31;38.94
6136;BME280;24008;42.664;23.372;2023-02-18T09:26:27;95360.25;;;12.01;37.72
6136;BME280;24008;42.664;23.372;2023-02-18T09:28:55;95441.19;;;12.90;37.07
6136;BME280;24008;42.664;23.372;2023-02-18T09:31:26;95349.91;;;12.87;36.79
6136;BME280;24008;42.664;23.372;2023-02-18T09:33:55;95423.19;;;14.01;36.73
6136;BME280;24008;42.664;23.372;2023-02-18T09:36:22;95420.53;;;14.73;35.69
6136;BME280;24008;42.664;23.372;2023-02-18T09:38:50;95332.59;;;14.78;33.83
6136;BME280;24008;42.664;23.372;2023-02-18T09:41:25;95351.81;;;14.66;33.19
6136;BME280;24008;42.664;23.372;2023-02-18T09:43:56;95415.69;;;15.48;33.14
6136;BME280;24008;42.664;23.372;2023-02-18T09:46:28;95342.88;;;15.38;31.96
6136;BME280;24008;42.664;23.372;2023-02-18T09:48:56;95207.03;;;14.56;31.79
6136;BME280;24008;42.664;23.372;2023-02-18T09:51:25;95379.66;;;16.06;31.23
6136;BME280;24008;42.664;23.372;2023-02-18T09:53:52;95422.31;;;16.67;30.80
6136;BME280;24008;42.664;23.372;2023-02-18T09:56:25;95420.97;;;17.28;30.01
6136;BME280;24008;42.664;23.372;2023-02-18T09:58:57;95399.09;;;16.83;30.05
6136;BME280;24008;42.664;23.372;2023-02-18T10:01:28;95393.41;;;16.31;30.69
6136;BME280;24008;42.664;23.372;2023-02-18T10:03:59;95330.16;;;15.02;31.41
6136;BME280;24008;42.664;23.372;2023-02-18T10:06:30;95408.78;;;15.23;32.64
6136;BME280;24008;42.664;23.372;2023-02-18T10:09:00;95402.25;;;15.62;31.84
6136;BME280;24008;42.664;23.372;2023-02-18T10:11:31;95402.78;;;16.40;31.76
6136;BME280;24008;42.664;23.372;2023-02-18T10:14:01;95402.44;;;17.16;30.38
6136;BME280;24008;42.664;23.372;2023-02-18T10:16:29;95373.94;;;17.49;29.33
6136;BME280;24008;42.664;23.372;2023-02-18T10:18:57;95388.50;;;18.20;28.95
6136;BME280;24008;42.664;23.372;2023-02-18T10:21:26;95383.00;;;18.68;27.87
6136;BME280;24008;42.664;23.372;2023-02-18T10:23:59;95393.25;;;19.14;27.48
6136;BME280;24008;42.664;23.372;2023-02-18T10:26:28;95366.97;;;19.02;27.75
6136;BME280;24008;42.664;23.372;2023-02-18T10:28:55;95379.47;;;20.02;26.49
6136;BME280;24008;42.664;23.372;2023-02-18T10:31:30;95345.72;;;20.02;25.82
6136;BME280;24008;42.664;23.372;2023-02-18T10:34:03;95375.00;;;19.81;26.18
6136;BME280;24008;42.664;23.372;2023-02-18T10:36:36;95351.78;;;19.14;26.51
6136;BME280;24008;42.664;23.372;2023-02-18T10:39:23;95354.84;;;19.62;26.49
6136;BME280;24008;42.664;23.372;2023-02-18T10:42:04;95372.63;;;20.16;25.64
6136;BME280;24008;42.664;23.372;2023-02-18T10:44:43;95358.00;;;19.93;26.34
6136;BME280;24008;42.664;23.372;2023-02-18T10:47:32;95356.25;;;19.20;26.58
6136;BME280;24008;42.664;23.372;2023-02-18T10:50:08;95324.63;;;17.89;27.81
6136;BME280;24008;42.664;23.372;2023-02-18T10:52:40;95329.50;;;17.14;28.89
6136;BME280;24008;42.664;23.372;2023-02-18T10:55:09;95340.50;;;16.92;29.91
6136;BME280;24008;42.664;23.372;2023-02-18T10:57:45;95316.81;;;16.32;30.79
6136;BME280;24008;42.664;23.372;2023-02-18T11:00:18;95332.59;;;15.96;30.84
6136;BME280;24008;42.664;23.372;2023-02-18T11:03:02;95281.19;;;15.87;30.17
6136;BME280;24008;42.664;23.372;2023-02-18T11:05:35;95330.19;;;16.11;30.80
6136;BME280;24008;42.664;23.372;2023-02-18T11:08:06;95270.06;;;15.86;30.71
6136;BME280;24008;42.664;23.372;2023-02-18T11:10:35;95316.34;;;16.12;30.49
6136;BME280;24008;42.664;23.372;2023-02-18T11:13:06;95309.41;;;16.20;30.46
6136;BME280;24008;42.664;23.372;2023-02-18T11:15:34;95281.19;;;16.19;30.82
6136;BME280;24008;42.664;23.372;2023-02-18T11:18:19;95260.09;;;16.15;30.17
6136;BME280;24008;42.664;23.372;2023-02-18T11:20:54;95207.56;;;15.92;30.23
6136;BME280;24008;42.664;23.372;2023-02-18T11:23:22;95291.97;;;16.55;29.53
6136;BME280;24008;42.664;23.372;2023-02-18T11:25:59;95285.69;;;16.74;29.43
6136;BME280;24008;42.664;23.372;2023-02-18T11:28:40;95274.06;;;16.70;30.63
6136;BME280;24008;42.664;23.372;2023-02-18T11:31:09;95223.28;;;16.46;30.02
6136;BME280;24008;42.664;23.372;2023-02-18T11:33:41;95242.13;;;16.54;29.48
6136;BME280;24008;42.664;23.372;2023-02-18T11:36:17;95195.25;;;16.35;29.66
6136;BME280;24008;42.664;23.372;2023-02-18T11:38:48;95113.31;;;15.90;29.39
6136;BME280;24008;42.664;23.372;2023-02-18T11:41:17;95194.91;;;16.46;29.22
6136;BME280;24008;42.664;23.372;2023-02-18T11:43:47;95201.06;;;16.37;28.75
6136;BME280;24008;42.664;23.372;2023-02-18T11:46:18;95255.06;;;16.38;29.05
6136;BME280;24008;42.664;23.372;2023-02-18T11:48:47;95243.16;;;16.29;29.19
6136;BME280;24008;42.664;23.372;2023-02-18T11:51:16;95251.22;;;16.18;29.45
6136;BME280;24008;42.664;23.372;2023-02-18T11:53:58;95190.78;;;16.04;29.58
6136;BME280;24008;42.664;23.372;2023-02-18T11:56:27;95134.59;;;15.67;29.54
6136;BME280;24008;42.664;23.372;2023-02-18T11:58:56;95165.50;;;15.75;29.71
6136;BME280;24008;42.664;23.372;2023-02-18T12:01:36;95228.97;;;16.17;30.19
6136;BME280;24008;42.664;23.372;2023-02-18T12:04:11;95102.38;;;15.31;30.47
6136;BME280;24008;42.664;23.372;2023-02-18T12:06:44;95064.03;;;15.11;30.24
6136;BME280;24008;42.664;23.372;2023-02-18T12:09:20;95203.84;;;15.87;30.00
6136;BME280;24008;42.664;23.372;2023-02-18T12:11:51;95161.97;;;15.76;30.54
6136;BME280;24008;42.664;23.372;2023-02-18T12:14:20;95153.56;;;15.82;30.52
6136;BME280;24008;42.664;23.372;2023-02-18T12:17:05;95198.66;;;16.19;30.44
6136;BME280;24008;42.664;23.372;2023-02-18T12:19:48;95045.19;;;15.35;30.79
6136;BME280;24008;42.664;23.372;2023-02-18T12:22:21;95136.66;;;16.04;30.68
6136;BME280;24008;42.664;23.372;2023-02-18T12:25:03;95182.16;;;16.44;30.08
6136;BME280;24008;42.664;23.372;2023-02-18T12:27:39;95063.69;;;15.71;30.13
6136;BME280;24008;42.664;23.372;2023-02-18T12:30:29;95180.91;;;16.40;30.47
6136;BME280;24008;42.664;23.372;2023-02-18T12:33:06;95173.94;;;16.49;30.58
6136;BME280;24008;42.664;23.372;2023-02-18T12:35:48;95177.81;;;16.53;31.24
6136;BME280;24008;42.664;23.372;2023-02-18T12:41:22;95168.50;;;16.19;31.60
6136;BME280;24008;42.664;23.372;2023-02-18T12:44:00;95164.66;;;16.07;31.62
6136;BME280;24008;42.664;23.372;2023-02-18T12:46:43;95134.22;;;15.95;32.11
6136;BME280;24008;42.664;23.372;2023-02-18T12:49:34;95159.34;;;16.17;31.94
6136;BME280;24008;42.664;23.372;2023-02-18T12:52:12;95150.00;;;16.16;31.92
6136;BME280;24008;42.664;23.372;2023-02-18T12:58:05;95152.41;;;16.26;32.09
6136;BME280;24008;42.664;23.372;2023-02-18T13:00:55;95152.38;;;16.34;31.91
6136;BME280;24008;42.664;23.372;2023-02-18T13:06:37;95160.88;;;16.42;31.36
6136;BME280;24008;42.664;23.372;2023-02-18T13:09:17;95107.09;;;16.23;31.15
6136;BME280;24008;42.664;23.372;2023-02-18T13:11:53;95041.09;;;15.98;31.13
6136;BME280;24008;42.664;23.372;2023-02-18T13:14:24;95154.69;;;16.76;30.74
6136;BME280;24008;42.664;23.372;2023-02-18T13:16:56;95158.34;;;16.81;30.65
6136;BME280;24008;42.664;23.372;2023-02-18T13:19:26;95121.97;;;16.60;30.48
6136;BME280;24008;42.664;23.372;2023-02-18T13:21:57;95116.78;;;16.68;30.17
6136;BME280;24008;42.664;23.372;2023-02-18T13:24:31;94727.22;;;13.96;30.25
6136;BME280;24008;42.664;23.372;2023-02-18T13:27:06;95150.22;;;16.92;29.84
6136;BME280;24008;42.664;23.372;2023-02-18T13:29:36;95143.94;;;16.95;29.94
6136;BME280;24008;42.664;23.372;2023-02-18T13:32:12;95084.56;;;16.64;29.53
6136;BME280;24008;42.664;23.372;2023-02-18T13:34:46;95152.34;;;17.20;29.44
6136;BME280;24008;42.664;23.372;2023-02-18T13:37:20;95096.38;;;16.89;29.18
6136;BME280;24008;42.664;23.372;2023-02-18T13:39:52;95154.06;;;17.27;29.25